sensor_id;sensor_type;location;lat;lon;timestamp;temperature;humidity
47310;DHT22;33046;52.270;6.832;2024-03-02T00:01:45;10.20;97.20
47310;DHT22;33046;52.270;6.832;2024-03-02T00:03:52;10.20;97.20
47310;DHT22;33046;52.270;6.832;2024-03-02T00:05:59;10.20;97.30
47310;DHT22;33046;52.270;6.832;2024-03-02T00:08:07;10.20;97.30
47310;DHT22;33046;52.270;6.832;2024-03-02T00:10:18;10.20;97.40
47310;DHT22;33046;52.270;6.832;2024-03-02T00:12:26;10.20;97.40
47310;DHT22;33046;52.270;6.832;2024-03-02T00:14:33;10.20;97.40
47310;DHT22;33046;52.270;6.832;2024-03-02T00:16:41;10.20;97.50
47310;DHT22;33046;52.270;6.832;2024-03-02T00:18:47;10.20;97.60
47310;DHT22;33046;52.270;6.832;2024-03-02T00:20:55;10.20;97.60
47310;DHT22;33046;52.270;6.832;2024-03-02T00:23:04;10.20;97.60
47310;DHT22;33046;52.270;6.832;2024-03-02T00:25:11;10.20;97.80
47310;DHT22;33046;52.270;6.832;2024-03-02T00:27:19;10.20;97.60
47310;DHT22;33046;52.270;6.832;2024-03-02T00:29:27;10.20;97.80
47310;DHT22;33046;52.270;6.832;2024-03-02T00:31:35;10.20;97.90
47310;DHT22;33046;52.270;6.832;2024-03-02T00:33:43;10.20;97.90
47310;DHT22;33046;52.270;6.832;2024-03-02T00:35:51;10.20;97.90
47310;DHT22;33046;52.270;6.832;2024-03-02T00:37:57;10.20;97.90
47310;DHT22;33046;52.270;6.832;2024-03-02T00:40:06;10.20;98.00
47310;DHT22;33046;52.270;6.832;2024-03-02T00:42:13;10.20;97.90
47310;DHT22;33046;52.270;6.832;2024-03-02T00:44:25;10.20;97.90
47310;DHT22;33046;52.270;6.832;2024-03-02T00:46:34;10.20;97.80
47310;DHT22;33046;52.270;6.832;2024-03-02T00:48:59;10.20;97.90
47310;DHT22;33046;52.270;6.832;2024-03-02T00:51:06;10.20;97.90
47310;DHT22;33046;52.270;6.832;2024-03-02T00:53:14;10.20;97.80
47310;DHT22;33046;52.270;6.832;2024-03-02T00:55:21;10.20;97.90
47310;DHT22;33046;52.270;6.832;2024-03-02T00:57:31;10.20;97.90
47310;DHT22;33046;52.270;6.832;2024-03-02T00:59:41;10.20;97.90
47310;DHT22;33046;52.270;6.832;2024-03-02T01:01:48;10.20;98.00
47310;DHT22;33046;52.270;6.832;2024-03-02T01:03:55;10.20;98.00
47310;DHT22;33046;52.270;6.832;2024-03-02T01:06:02;10.20;98.00
47310;DHT22;33046;52.270;6.832;2024-03-02T01:08:09;10.20;98.10
47310;DHT22;33046;52.270;6.832;2024-03-02T01:10:16;10.20;98.10
47310;DHT22;33046;52.270;6.832;2024-03-02T01:12:23;10.20;98.10
47310;DHT22;33046;52.270;6.832;2024-03-02T01:14:30;10.20;98.10
47310;DHT22;33046;52.270;6.832;2024-03-02T01:16:38;10.20;98.30
47310;DHT22;33046;52.270;6.832;2024-03-02T01:18:45;10.20;98.30
47310;DHT22;33046;52.270;6.832;2024-03-02T01:20:52;10.20;98.20
47310;DHT22;33046;52.270;6.832;2024-03-02T01:22:59;10.20;98.30
47310;DHT22;33046;52.270;6.832;2024-03-02T01:25:06;10.20;98.30
47310;DHT22;33046;52.270;6.832;2024-03-02T01:27:14;10.20;98.20
47310;DHT22;33046;52.270;6.832;2024-03-02T01:29:21;10.20;98.20
47310;DHT22;33046;52.270;6.832;2024-03-02T01:31:28;10.20;98.20
47310;DHT22;33046;52.270;6.832;2024-03-02T01:33:36;10.10;98.20
47310;DHT22;33046;52.270;6.832;2024-03-02T01:35:43;10.20;98.20
47310;DHT22;33046;52.270;6.832;2024-03-02T01:37:50;10.10;98.20
47310;DHT22;33046;52.270;6.832;2024-03-02T01:39:57;10.10;98.20
47310;DHT22;33046;52.270;6.832;2024-03-02T01:42:05;10.10;98.30
47310;DHT22;33046;52.270;6.832;2024-03-02T01:44:12;10.10;98.40
47310;DHT22;33046;52.270;6.832;2024-03-02T01:46:19;10.10;98.30
47310;DHT22;33046;52.270;6.832;2024-03-02T01:48:26;10.10;98.50
47310;DHT22;33046;52.270;6.832;2024-03-02T01:50:35;10.10;98.50
47310;DHT22;33046;52.270;6.832;2024-03-02T01:52:41;10.10;98.50
47310;DHT22;33046;52.270;6.832;2024-03-02T01:54:48;10.10;98.60
47310;DHT22;33046;52.270;6.832;2024-03-02T01:56:55;10.10;98.70
47310;DHT22;33046;52.270;6.832;2024-03-02T01:59:02;10.10;98.60
47310;DHT22;33046;52.270;6.832;2024-03-02T02:01:09;10.10;98.70
47310;DHT22;33046;52.270;6.832;2024-03-02T02:03:16;10.10;98.70
47310;DHT22;33046;52.270;6.832;2024-03-02T02:05:23;10.10;98.70
47310;DHT22;33046;52.270;6.832;2024-03-02T02:07:31;10.10;98.70
47310;DHT22;33046;52.270;6.832;2024-03-02T02:09:38;10.10;98.70
47310;DHT22;33046;52.270;6.832;2024-03-02T02:11:45;10.10;98.70
47310;DHT22;33046;52.270;6.832;2024-03-02T02:13:52;10.10;98.80
47310;DHT22;33046;52.270;6.832;2024-03-02T02:16:04;10.10;98.80
47310;DHT22;33046;52.270;6.832;2024-03-02T02:18:11;10.10;98.90
47310;DHT22;33046;52.270;6.832;2024-03-02T02:20:18;10.10;98.90
47310;DHT22;33046;52.270;6.832;2024-03-02T02:22:27;10.10;98.90
47310;DHT22;33046;52.270;6.832;2024-03-02T02:24:33;10.00;98.90
47310;DHT22;33046;52.270;6.832;2024-03-02T02:26:40;10.00;98.90
47310;DHT22;33046;52.270;6.832;2024-03-02T02:28:47;10.10;98.90
47310;DHT22;33046;52.270;6.832;2024-03-02T02:30:55;10.10;98.90
47310;DHT22;33046;52.270;6.832;2024-03-02T02:33:02;10.00;99.10
47310;DHT22;33046;52.270;6.832;2024-03-02T02:35:08;10.10;99.10
47310;DHT22;33046;52.270;6.832;2024-03-02T02:37:15;10.10;99.10
47310;DHT22;33046;52.270;6.832;2024-03-02T02:39:24;10.10;99.20
47310;DHT22;33046;52.270;6.832;2024-03-02T02:41:31;10.10;99.20
47310;DHT22;33046;52.270;6.832;2024-03-02T02:43:37;10.10;99.20
47310;DHT22;33046;52.270;6.832;2024-03-02T02:45:44;10.10;99.20
47310;DHT22;33046;52.270;6.832;2024-03-02T02:47:51;10.10;99.20
47310;DHT22;33046;52.270;6.832;2024-03-02T02:49:58;10.10;99.30
47310;DHT22;33046;52.270;6.832;2024-03-02T02:52:05;10.10;99.20
47310;DHT22;33046;52.270;6.832;2024-03-02T02:54:12;10.10;99.30
47310;DHT22;33046;52.270;6.832;2024-03-02T02:56:20;10.10;99.30
47310;DHT22;33046;52.270;6.832;2024-03-02T02:58:27;10.10;99.30
47310;DHT22;33046;52.270;6.832;2024-03-02T03:00:33;10.10;99.30
47310;DHT22;33046;52.270;6.832;2024-03-02T03:02:41;10.10;99.30
47310;DHT22;33046;52.270;6.832;2024-03-02T03:04:48;10.10;99.30
47310;DHT22;33046;52.270;6.832;2024-03-02T03:06:54;10.10;99.40
47310;DHT22;33046;52.270;6.832;2024-03-02T03:09:01;10.20;99.50
47310;DHT22;33046;52.270;6.832;2024-03-02T03:11:08;10.20;99.40
47310;DHT22;33046;52.270;6.832;2024-03-02T03:13:17;10.20;99.40
47310;DHT22;33046;52.270;6.832;2024-03-02T03:15:23;10.10;99.40
47310;DHT22;33046;52.270;6.832;2024-03-02T03:17:30;10.20;99.40
47310;DHT22;33046;52.270;6.832;2024-03-02T03:19:38;10.20;99.40
47310;DHT22;33046;52.270;6.832;2024-03-02T03:21:45;10.20;99.40
47310;DHT22;33046;52.270;6.832;2024-03-02T03:23:52;10.20;99.40
47310;DHT22;33046;52.270;6.832;2024-03-02T03:25:58;10.20;99.40
47310;DHT22;33046;52.270;6.832;2024-03-02T03:28:05;10.20;99.30
47310;DHT22;33046;52.270;6.832;2024-03-02T03:30:14;10.20;99.30
47310;DHT22;33046;52.270;6.832;2024-03-02T03:32:21;10.20;99.20
47310;DHT22;33046;52.270;6.832;2024-03-02T03:34:28;10.20;99.20
47310;DHT22;33046;52.270;6.832;2024-03-02T03:36:35;10.20;99.20
47310;DHT22;33046;52.270;6.832;2024-03-02T03:38:43;10.20;99.10
47310;DHT22;33046;52.270;6.832;2024-03-02T03:40:50;10.20;99.10
47310;DHT22;33046;52.270;6.832;2024-03-02T03:42:57;10.20;99.20
47310;DHT22;33046;52.270;6.832;2024-03-02T03:45:04;10.10;99.00
47310;DHT22;33046;52.270;6.832;2024-03-02T03:47:12;10.10;99.10
47310;DHT22;33046;52.270;6.832;2024-03-02T03:49:19;10.10;99.20
47310;DHT22;33046;52.270;6.832;2024-03-02T03:51:26;10.10;99.10
47310;DHT22;33046;52.270;6.832;2024-03-02T03:53:33;10.10;99.30
47310;DHT22;33046;52.270;6.832;2024-03-02T03:55:40;10.10;99.20
47310;DHT22;33046;52.270;6.832;2024-03-02T03:57:47;10.10;99.30
47310;DHT22;33046;52.270;6.832;2024-03-02T03:59:54;10.00;99.20
47310;DHT22;33046;52.270;6.832;2024-03-02T04:02:00;10.00;99.30
47310;DHT22;33046;52.270;6.832;2024-03-02T04:04:09;10.00;99.40
47310;DHT22;33046;52.270;6.832;2024-03-02T04:06:15;10.00;99.20
47310;DHT22;33046;52.270;6.832;2024-03-02T04:08:22;10.00;99.30
47310;DHT22;33046;52.270;6.832;2024-03-02T04:10:29;9.90;99.20
47310;DHT22;33046;52.270;6.832;2024-03-02T04:12:36;9.90;99.40
47310;DHT22;33046;52.270;6.832;2024-03-02T04:14:43;9.90;99.40
47310;DHT22;33046;52.270;6.832;2024-03-02T04:16:50;9.90;99.60
47310;DHT22;33046;52.270;6.832;2024-03-02T04:18:57;9.90;99.70
47310;DHT22;33046;52.270;6.832;2024-03-02T04:21:05;9.90;99.80
47310;DHT22;33046;52.270;6.832;2024-03-02T04:23:12;9.80;99.90
47310;DHT22;33046;52.270;6.832;2024-03-02T04:25:19;9.90;99.90
47310;DHT22;33046;52.270;6.832;2024-03-02T04:27:25;9.80;99.90
47310;DHT22;33046;52.270;6.832;2024-03-02T04:29:32;9.80;99.90
47310;DHT22;33046;52.270;6.832;2024-03-02T04:31:39;9.80;99.90
47310;DHT22;33046;52.270;6.832;2024-03-02T04:33:46;9.80;99.90
47310;DHT22;33046;52.270;6.832;2024-03-02T04:35:53;9.80;99.90
47310;DHT22;33046;52.270;6.832;2024-03-02T04:38:01;9.80;99.90
47310;DHT22;33046;52.270;6.832;2024-03-02T04:40:09;9.80;99.90
47310;DHT22;33046;52.270;6.832;2024-03-02T04:42:16;9.70;99.90
47310;DHT22;33046;52.270;6.832;2024-03-02T04:44:23;9.80;99.90
47310;DHT22;33046;52.270;6.832;2024-03-02T04:46:29;9.80;99.90
47310;DHT22;33046;52.270;6.832;2024-03-02T04:48:37;9.80;99.90
47310;DHT22;33046;52.270;6.832;2024-03-02T04:50:45;9.80;99.90
47310;DHT22;33046;52.270;6.832;2024-03-02T04:52:51;9.80;99.90
47310;DHT22;33046;52.270;6.832;2024-03-02T04:55:00;9.80;99.90
47310;DHT22;33046;52.270;6.832;2024-03-02T04:57:06;9.80;99.90
47310;DHT22;33046;52.270;6.832;2024-03-02T04:59:13;9.70;99.90
47310;DHT22;33046;52.270;6.832;2024-03-02T05:01:20;9.80;99.90
47310;DHT22;33046;52.270;6.832;2024-03-02T05:03:27;9.80;99.90
47310;DHT22;33046;52.270;6.832;2024-03-02T05:05:34;9.80;99.90
47310;DHT22;33046;52.270;6.832;2024-03-02T05:07:41;9.70;99.90
47310;DHT22;33046;52.270;6.832;2024-03-02T05:09:47;9.70;99.90
47310;DHT22;33046;52.270;6.832;2024-03-02T05:11:56;9.80;99.90
47310;DHT22;33046;52.270;6.832;2024-03-02T05:14:02;9.80;99.90
47310;DHT22;33046;52.270;6.832;2024-03-02T05:16:09;9.70;99.90
47310;DHT22;33046;52.270;6.832;2024-03-02T05:18:16;9.80;99.90
47310;DHT22;33046;52.270;6.832;2024-03-02T05:20:23;9.70;99.90
47310;DHT22;33046;52.270;6.832;2024-03-02T05:22:30;9.80;99.90
47310;DHT22;33046;52.270;6.832;2024-03-02T05:24:36;9.80;99.90
47310;DHT22;33046;52.270;6.832;2024-03-02T05:26:43;9.80;99.90
47310;DHT22;33046;52.270;6.832;2024-03-02T05:28:51;9.80;99.90
47310;DHT22;33046;52.270;6.832;2024-03-02T05:30:58;9.80;99.90
47310;DHT22;33046;52.270;6.832;2024-03-02T05:33:05;9.80;99.90
47310;DHT22;33046;52.270;6.832;2024-03-02T05:35:12;9.80;99.90
47310;DHT22;33046;52.270;6.832;2024-03-02T05:37:19;9.80;99.90
47310;DHT22;33046;52.270;6.832;2024-03-02T05:39:26;9.80;99.90
47310;DHT22;33046;52.270;6.832;2024-03-02T05:41:33;9.70;99.90
47310;DHT22;33046;52.270;6.832;2024-03-02T05:43:39;9.80;99.90
47310;DHT22;33046;52.270;6.832;2024-03-02T05:45:48;9.80;99.90
47310;DHT22;33046;52.270;6.832;2024-03-02T05:47:54;9.80;99.90
47310;DHT22;33046;52.270;6.832;2024-03-02T05:50:01;9.90;99.90
47310;DHT22;33046;52.270;6.832;2024-03-02T05:52:08;9.90;99.90
47310;DHT22;33046;52.270;6.832;2024-03-02T05:54:15;9.90;99.90
47310;DHT22;33046;52.270;6.832;2024-03-02T05:56:22;9.90;99.90
47310;DHT22;33046;52.270;6.832;2024-03-02T05:58:29;9.90;99.90
47310;DHT22;33046;52.270;6.832;2024-03-02T06:00:35;9.90;99.90
47310;DHT22;33046;52.270;6.832;2024-03-02T06:02:44;9.90;99.90
47310;DHT22;33046;52.270;6.832;2024-03-02T06:04:50;9.90;99.90
47310;DHT22;33046;52.270;6.832;2024-03-02T06:06:57;9.90;99.90
47310;DHT22;33046;52.270;6.832;2024-03-02T06:09:05;9.90;99.90
47310;DHT22;33046;52.270;6.832;2024-03-02T06:11:12;9.90;99.90
47310;DHT22;33046;52.270;6.832;2024-03-02T06:13:19;9.90;99.90
47310;DHT22;33046;52.270;6.832;2024-03-02T06:15:26;9.90;99.90
47310;DHT22;33046;52.270;6.832;2024-03-02T06:17:34;9.90;99.90
47310;DHT22;33046;52.270;6.832;2024-03-02T06:19:42;9.90;99.90
47310;DHT22;33046;52.270;6.832;2024-03-02T06:21:49;9.90;99.90
47310;DHT22;33046;52.270;6.832;2024-03-02T06:23:56;9.90;99.90
47310;DHT22;33046;52.270;6.832;2024-03-02T06:26:03;9.90;99.90
47310;DHT22;33046;52.270;6.832;2024-03-02T06:28:10;9.80;99.90
47310;DHT22;33046;52.270;6.832;2024-03-02T06:30:17;9.90;99.90
47310;DHT22;33046;52.270;6.832;2024-03-02T06:32:24;9.80;99.90
47310;DHT22;33046;52.270;6.832;2024-03-02T06:34:31;9.90;99.90
47310;DHT22;33046;52.270;6.832;2024-03-02T06:36:40;9.80;99.90
47310;DHT22;33046;52.270;6.832;2024-03-02T06:38:46;9.80;99.90
47310;DHT22;33046;52.270;6.832;2024-03-02T06:40:53;9.80;99.90
47310;DHT22;33046;52.270;6.832;2024-03-02T06:43:00;9.80;99.90
47310;DHT22;33046;52.270;6.832;2024-03-02T06:45:07;9.80;99.90
47310;DHT22;33046;52.270;6.832;2024-03-02T06:47:14;9.90;99.90
47310;DHT22;33046;52.270;6.832;2024-03-02T06:49:21;9.90;99.90
47310;DHT22;33046;52.270;6.832;2024-03-02T06:51:27;9.90;99.90
47310;DHT22;33046;52.270;6.832;2024-03-02T06:53:36;9.90;99.90
47310;DHT22;33046;52.270;6.832;2024-03-02T06:55:42;9.90;99.90
47310;DHT22;33046;52.270;6.832;2024-03-02T06:57:49;9.90;99.90
47310;DHT22;33046;52.270;6.832;2024-03-02T06:59:56;9.90;99.90
47310;DHT22;33046;52.270;6.832;2024-03-02T07:02:03;9.90;99.90
47310;DHT22;33046;52.270;6.832;2024-03-02T07:04:10;9.90;99.90
47310;DHT22;33046;52.270;6.832;2024-03-02T07:06:17;9.90;99.90
47310;DHT22;33046;52.270;6.832;2024-03-02T07:08:24;9.90;99.90
47310;DHT22;33046;52.270;6.832;2024-03-02T07:10:32;9.90;99.90
47310;DHT22;33046;52.270;6.832;2024-03-02T07:12:39;9.90;99.90
47310;DHT22;33046;52.270;6.832;2024-03-02T07:14:45;9.90;99.90
47310;DHT22;33046;52.270;6.832;2024-03-02T07:16:52;9.90;99.90
47310;DHT22;33046;52.270;6.832;2024-03-02T07:19:00;9.90;99.90
47310;DHT22;33046;52.270;6.832;2024-03-02T07:21:07;10.00;99.90
47310;DHT22;33046;52.270;6.832;2024-03-02T07:23:14;9.90;99.90
47310;DHT22;33046;52.270;6.832;2024-03-02T07:25:21;9.90;99.90
47310;DHT22;33046;52.270;6.832;2024-03-02T07:27:32;9.90;99.90
47310;DHT22;33046;52.270;6.832;2024-03-02T07:29:40;9.90;99.90
47310;DHT22;33046;52.270;6.832;2024-03-02T07:31:46;9.90;99.90
47310;DHT22;33046;52.270;6.832;2024-03-02T07:33:53;9.90;99.90
47310;DHT22;33046;52.270;6.832;2024-03-02T07:36:00;9.90;99.90
47310;DHT22;33046;52.270;6.832;2024-03-02T07:38:09;10.00;99.90
47310;DHT22;33046;52.270;6.832;2024-03-02T07:40:15;10.00;99.90
47310;DHT22;33046;52.270;6.832;2024-03-02T07:42:22;10.00;99.90
47310;DHT22;33046;52.270;6.832;2024-03-02T07:44:30;10.00;99.90
47310;DHT22;33046;52.270;6.832;2024-03-02T07:46:37;10.00;99.90
47310;DHT22;33046;52.270;6.832;2024-03-02T07:48:44;10.00;99.90
47310;DHT22;33046;52.270;6.832;2024-03-02T07:50:51;10.00;99.90
47310;DHT22;33046;52.270;6.832;2024-03-02T07:52:58;10.00;99.90
47310;DHT22;33046;52.270;6.832;2024-03-02T07:55:05;10.00;99.90
47310;DHT22;33046;52.270;6.832;2024-03-02T07:57:12;10.10;99.90
47310;DHT22;33046;52.270;6.832;2024-03-02T07:59:19;10.10;99.90
47310;DHT22;33046;52.270;6.832;2024-03-02T08:01:27;10.10;99.90
47310;DHT22;33046;52.270;6.832;2024-03-02T08:03:34;10.10;99.90
47310;DHT22;33046;52.270;6.832;2024-03-02T08:05:41;10.10;99.90
47310;DHT22;33046;52.270;6.832;2024-03-02T08:07:48;10.20;99.90
47310;DHT22;33046;52.270;6.832;2024-03-02T08:09:55;10.20;99.90
47310;DHT22;33046;52.270;6.832;2024-03-02T08:12:02;10.20;99.90
47310;DHT22;33046;52.270;6.832;2024-03-02T08:14:09;10.20;99.90
47310;DHT22;33046;52.270;6.832;2024-03-02T08:16:16;10.30;99.90
47310;DHT22;33046;52.270;6.832;2024-03-02T08:18:24;10.30;99.90
47310;DHT22;33046;52.270;6.832;2024-03-02T08:20:31;10.30;99.90
47310;DHT22;33046;52.270;6.832;2024-03-02T08:22:38;10.30;99.90
47310;DHT22;33046;52.270;6.832;2024-03-02T08:24:45;10.40;99.90
47310;DHT22;33046;52.270;6.832;2024-03-02T08:26:52;10.40;99.90
47310;DHT22;33046;52.270;6.832;2024-03-02T08:28:59;10.50;99.90
47310;DHT22;33046;52.270;6.832;2024-03-02T08:31:06;10.50;99.90
47310;DHT22;33046;52.270;6.832;2024-03-02T08:33:13;10.50;99.90
47310;DHT22;33046;52.270;6.832;2024-03-02T08:35:21;10.50;99.90
47310;DHT22;33046;52.270;6.832;2024-03-02T08:37:28;10.60;99.90
47310;DHT22;33046;52.270;6.832;2024-03-02T08:39:35;10.60;99.90
47310;DHT22;33046;52.270;6.832;2024-03-02T08:41:42;10.60;99.90
47310;DHT22;33046;52.270;6.832;2024-03-02T08:43:49;10.70;99.90
47310;DHT22;33046;52.270;6.832;2024-03-02T08:45:56;10.70;99.90
47310;DHT22;33046;52.270;6.832;2024-03-02T08:48:03;10.70;99.90
47310;DHT22;33046;52.270;6.832;2024-03-02T08:50:10;10.80;99.90
47310;DHT22;33046;52.270;6.832;2024-03-02T08:52:18;10.80;99.90
47310;DHT22;33046;52.270;6.832;2024-03-02T08:54:25;10.80;99.90
47310;DHT22;33046;52.270;6.832;2024-03-02T08:56:32;10.90;99.90
47310;DHT22;33046;52.270;6.832;2024-03-02T08:58:39;10.90;99.90
47310;DHT22;33046;52.270;6.832;2024-03-02T09:00:46;10.90;99.90
47310;DHT22;33046;52.270;6.832;2024-03-02T09:02:54;11.00;99.90
47310;DHT22;33046;52.270;6.832;2024-03-02T09:05:01;11.10;99.90
47310;DHT22;33046;52.270;6.832;2024-03-02T09:07:08;11.10;99.60
47310;DHT22;33046;52.270;6.832;2024-03-02T09:09:16;11.10;99.30
47310;DHT22;33046;52.270;6.832;2024-03-02T09:11:23;11.20;99.20
47310;DHT22;33046;52.270;6.832;2024-03-02T09:13:30;11.20;98.80
47310;DHT22;33046;52.270;6.832;2024-03-02T09:15:37;11.30;99.10
47310;DHT22;33046;52.270;6.832;2024-03-02T09:17:44;11.30;98.90
47310;DHT22;33046;52.270;6.832;2024-03-02T09:19:50;11.40;98.90
47310;DHT22;33046;52.270;6.832;2024-03-02T09:21:57;11.40;99.10
47310;DHT22;33046;52.270;6.832;2024-03-02T09:24:05;11.40;98.80
47310;DHT22;33046;52.270;6.832;2024-03-02T09:26:15;11.40;99.00
47310;DHT22;33046;52.270;6.832;2024-03-02T09:28:22;11.50;98.80
47310;DHT22;33046;52.270;6.832;2024-03-02T09:30:28;11.60;98.90
47310;DHT22;33046;52.270;6.832;2024-03-02T09:32:36;11.60;98.80
47310;DHT22;33046;52.270;6.832;2024-03-02T09:34:43;11.70;98.90
47310;DHT22;33046;52.270;6.832;2024-03-02T09:36:51;11.80;99.10
47310;DHT22;33046;52.270;6.832;2024-03-02T09:38:57;11.80;99.00
47310;DHT22;33046;52.270;6.832;2024-03-02T09:41:04;11.90;99.00
47310;DHT22;33046;52.270;6.832;2024-03-02T09:43:13;11.90;99.00
47310;DHT22;33046;52.270;6.832;2024-03-02T09:45:23;12.00;98.90
47310;DHT22;33046;52.270;6.832;2024-03-02T09:47:30;12.00;98.60
47310;DHT22;33046;52.270;6.832;2024-03-02T09:49:37;12.10;98.90
47310;DHT22;33046;52.270;6.832;2024-03-02T09:51:49;12.10;98.00
47310;DHT22;33046;52.270;6.832;2024-03-02T09:53:56;12.10;98.50
47310;DHT22;33046;52.270;6.832;2024-03-02T09:56:06;12.20;98.00
47310;DHT22;33046;52.270;6.832;2024-03-02T09:58:14;12.30;98.20
47310;DHT22;33046;52.270;6.832;2024-03-02T10:00:21;12.40;98.00
47310;DHT22;33046;52.270;6.832;2024-03-02T10:02:28;12.40;97.50
47310;DHT22;33046;52.270;6.832;2024-03-02T10:04:35;12.40;97.30
47310;DHT22;33046;52.270;6.832;2024-03-02T10:06:41;12.40;98.20
47310;DHT22;33046;52.270;6.832;2024-03-02T10:08:48;12.50;98.00
47310;DHT22;33046;52.270;6.832;2024-03-02T10:10:55;12.50;97.80
47310;DHT22;33046;52.270;6.832;2024-03-02T10:13:04;12.50;97.10
47310;DHT22;33046;52.270;6.832;2024-03-02T10:15:12;12.50;96.70
47310;DHT22;33046;52.270;6.832;2024-03-02T10:17:19;12.50;96.50
47310;DHT22;33046;52.270;6.832;2024-03-02T10:19:25;12.50;96.60
47310;DHT22;33046;52.270;6.832;2024-03-02T10:21:32;12.50;96.50
47310;DHT22;33046;52.270;6.832;2024-03-02T10:23:39;12.50;96.50
47310;DHT22;33046;52.270;6.832;2024-03-02T10:25:46;12.50;96.30
47310;DHT22;33046;52.270;6.832;2024-03-02T10:27:57;12.50;96.50
47310;DHT22;33046;52.270;6.832;2024-03-02T10:30:05;12.60;96.10
47310;DHT22;33046;52.270;6.832;2024-03-02T10:32:14;12.60;96.50
47310;DHT22;33046;52.270;6.832;2024-03-02T10:34:21;12.70;96.50
47310;DHT22;33046;52.270;6.832;2024-03-02T10:36:28;12.70;96.70
47310;DHT22;33046;52.270;6.832;2024-03-02T10:38:35;12.70;97.70
47310;DHT22;33046;52.270;6.832;2024-03-02T10:40:46;12.70;97.90
47310;DHT22;33046;52.270;6.832;2024-03-02T10:42:53;12.80;97.10
47310;DHT22;33046;52.270;6.832;2024-03-02T10:45:01;12.80;96.00
47310;DHT22;33046;52.270;6.832;2024-03-02T10:47:09;12.80;95.20
47310;DHT22;33046;52.270;6.832;2024-03-02T10:49:21;12.90;96.60
47310;DHT22;33046;52.270;6.832;2024-03-02T10:51:29;12.90;97.10
47310;DHT22;33046;52.270;6.832;2024-03-02T10:53:36;13.00;96.90
47310;DHT22;33046;52.270;6.832;2024-03-02T10:55:44;13.00;95.90
47310;DHT22;33046;52.270;6.832;2024-03-02T10:57:53;13.10;96.20
47310;DHT22;33046;52.270;6.832;2024-03-02T11:00:03;13.00;96.00
47310;DHT22;33046;52.270;6.832;2024-03-02T11:02:11;13.10;96.30
47310;DHT22;33046;52.270;6.832;2024-03-02T11:04:21;13.00;96.10
47310;DHT22;33046;52.270;6.832;2024-03-02T11:06:29;13.10;96.90
47310;DHT22;33046;52.270;6.832;2024-03-02T11:08:38;13.20;97.20
47310;DHT22;33046;52.270;6.832;2024-03-02T11:10:50;13.20;97.30
47310;DHT22;33046;52.270;6.832;2024-03-02T11:13:01;13.30;96.60
47310;DHT22;33046;52.270;6.832;2024-03-02T11:15:10;13.20;97.00
47310;DHT22;33046;52.270;6.832;2024-03-02T11:17:18;13.30;96.60
47310;DHT22;33046;52.270;6.832;2024-03-02T11:19:27;13.30;95.80
47310;DHT22;33046;52.270;6.832;2024-03-02T11:21:34;13.30;95.70
47310;DHT22;33046;52.270;6.832;2024-03-02T11:23:42;13.40;96.70
47310;DHT22;33046;52.270;6.832;2024-03-02T11:25:48;13.40;95.00
47310;DHT22;33046;52.270;6.832;2024-03-02T11:28:05;13.40;96.00
47310;DHT22;33046;52.270;6.832;2024-03-02T11:30:52;13.40;94.90
47310;DHT22;33046;52.270;6.832;2024-03-02T11:32:59;13.40;93.90
47310;DHT22;33046;52.270;6.832;2024-03-02T11:35:06;13.40;93.70
47310;DHT22;33046;52.270;6.832;2024-03-02T11:37:13;13.50;94.50
47310;DHT22;33046;52.270;6.832;2024-03-02T11:39:21;13.50;95.40
47310;DHT22;33046;52.270;6.832;2024-03-02T11:41:28;13.40;94.20
47310;DHT22;33046;52.270;6.832;2024-03-02T11:43:37;13.50;94.10
47310;DHT22;33046;52.270;6.832;2024-03-02T11:45:44;13.50;93.70
47310;DHT22;33046;52.270;6.832;2024-03-02T11:47:54;13.50;95.00
47310;DHT22;33046;52.270;6.832;2024-03-02T11:50:01;13.50;94.90
47310;DHT22;33046;52.270;6.832;2024-03-02T11:52:09;13.60;94.30
47310;DHT22;33046;52.270;6.832;2024-03-02T11:54:16;13.60;95.10
47310;DHT22;33046;52.270;6.832;2024-03-02T11:56:24;13.60;94.60
47310;DHT22;33046;52.270;6.832;2024-03-02T11:58:34;13.60;94.60
47310;DHT22;33046;52.270;6.832;2024-03-02T12:00:42;13.70;94.30
47310;DHT22;33046;52.270;6.832;2024-03-02T12:03:01;13.70;94.30
47310;DHT22;33046;52.270;6.832;2024-03-02T12:05:10;13.80;94.80
47310;DHT22;33046;52.270;6.832;2024-03-02T12:07:19;13.80;94.40
47310;DHT22;33046;52.270;6.832;2024-03-02T12:09:26;13.80;94.00
47310;DHT22;33046;52.270;6.832;2024-03-02T12:11:33;13.80;94.60
47310;DHT22;33046;52.270;6.832;2024-03-02T12:13:40;13.80;95.20
47310;DHT22;33046;52.270;6.832;2024-03-02T12:15:47;13.80;93.40
47310;DHT22;33046;52.270;6.832;2024-03-02T12:17:56;13.90;93.90
47310;DHT22;33046;52.270;6.832;2024-03-02T12:20:04;13.80;93.40
47310;DHT22;33046;52.270;6.832;2024-03-02T12:22:11;13.90;93.90
47310;DHT22;33046;52.270;6.832;2024-03-02T12:24:18;13.90;94.80
47310;DHT22;33046;52.270;6.832;2024-03-02T12:26:25;14.00;93.60
47310;DHT22;33046;52.270;6.832;2024-03-02T12:28:33;14.00;93.90
47310;DHT22;33046;52.270;6.832;2024-03-02T12:30:40;14.10;93.60
47310;DHT22;33046;52.270;6.832;2024-03-02T12:32:48;14.10;93.70
47310;DHT22;33046;52.270;6.832;2024-03-02T12:34:56;14.10;93.10
47310;DHT22;33046;52.270;6.832;2024-03-02T12:37:03;14.10;93.20
47310;DHT22;33046;52.270;6.832;2024-03-02T12:39:10;14.20;93.80
47310;DHT22;33046;52.270;6.832;2024-03-02T12:41:22;14.10;94.20
47310;DHT22;33046;52.270;6.832;2024-03-02T12:43:33;14.20;93.80
47310;DHT22;33046;52.270;6.832;2024-03-02T12:45:40;14.20;94.40
47310;DHT22;33046;52.270;6.832;2024-03-02T12:47:47;14.10;93.60
47310;DHT22;33046;52.270;6.832;2024-03-02T12:49:55;14.20;92.80
47310;DHT22;33046;52.270;6.832;2024-03-02T12:52:02;14.20;92.70
47310;DHT22;33046;52.270;6.832;2024-03-02T12:54:10;14.20;92.70
47310;DHT22;33046;52.270;6.832;2024-03-02T12:56:17;14.20;92.10
47310;DHT22;33046;52.270;6.832;2024-03-02T12:58:24;14.20;92.40
47310;DHT22;33046;52.270;6.832;2024-03-02T13:00:31;14.10;91.40
47310;DHT22;33046;52.270;6.832;2024-03-02T13:02:41;14.20;91.60
47310;DHT22;33046;52.270;6.832;2024-03-02T13:04:52;14.20;93.30
47310;DHT22;33046;52.270;6.832;2024-03-02T13:07:01;14.20;93.20
47310;DHT22;33046;52.270;6.832;2024-03-02T13:09:08;14.20;93.60
47310;DHT22;33046;52.270;6.832;2024-03-02T13:11:16;14.20;93.10
47310;DHT22;33046;52.270;6.832;2024-03-02T13:13:23;14.30;92.80
47310;DHT22;33046;52.270;6.832;2024-03-02T13:15:30;14.20;93.00
47310;DHT22;33046;52.270;6.832;2024-03-02T13:17:39;14.30;92.80
47310;DHT22;33046;52.270;6.832;2024-03-02T13:19:52;14.30;93.60
47310;DHT22;33046;52.270;6.832;2024-03-02T13:22:01;14.30;92.40
47310;DHT22;33046;52.270;6.832;2024-03-02T13:24:08;14.30;92.10
47310;DHT22;33046;52.270;6.832;2024-03-02T13:26:15;14.30;92.20
47310;DHT22;33046;52.270;6.832;2024-03-02T13:28:21;14.30;92.50
47310;DHT22;33046;52.270;6.832;2024-03-02T13:30:28;14.30;91.70